Terminal Aerodrome Forecast
Issued by NWS

Home | Current Version | Previous Version | Text Only | Print | Product List | Glossary On
Versions: 1 2 3 4 5 6 7 8 9 10 11 12 13 14 15 16 17 18 19 20 21 22 23 24 25 26 27 28
000
FTUS45 KSLC 211728
TAFEVW
TAF
KEVW 211728Z 2118/2218 26013G23KT P6SM BKN040
     FM212300 26015G25KT P6SM SCT040 BKN160
     FM220300 24011KT P6SM BKN050
     FM221700 26017G27KT P6SM SCT050=

USA.gov is the U.S. government's official web portal to all federal, state and local government web resources and services.